createdAt,value
2023-01-29T00:04:42.118Z,84.04
2023-01-29T00:09:43.950Z,83.94
2023-01-29T00:14:45.696Z,83.15
2023-01-29T00:19:47.448Z,82.71
2023-01-29T00:24:49.328Z,82.42
2023-01-29T00:29:51.574Z,81.72
2023-01-29T00:34:53.351Z,81.46
2023-01-29T00:39:55.124Z,80.63
2023-01-29T00:44:56.996Z,79.64
2023-01-29T00:49:59.552Z,79.78
2023-01-29T00:55:01.560Z,80.05
2023-01-29T01:00:06.245Z,79.72
2023-01-29T01:05:08.496Z,79.96
2023-01-29T01:10:14.387Z,78.46
2023-01-29T01:15:16.792Z,78.96
2023-01-29T01:20:19.047Z,78.62
2023-01-29T01:25:21.969Z,78.90
2023-01-29T01:30:23.977Z,78.94
2023-01-29T01:35:26.002Z,78.52
2023-01-29T01:40:27.824Z,77.85
2023-01-29T01:45:36.578Z,78.22
2023-01-29T01:50:54.058Z,78.92
2023-01-29T01:55:58.361Z,78.69
2023-01-29T02:01:00.254Z,78.43
2023-01-29T02:06:02.135Z,78.22
2023-01-29T02:11:04.129Z,79.07
2023-01-29T02:16:06.160Z,78.13
2023-01-29T02:21:27.986Z,78.25
2023-01-29T02:26:51.020Z,77.83
2023-01-29T02:32:08.715Z,78.09
2023-01-29T02:37:10.557Z,79.10
2023-01-29T02:42:24.423Z,78.07
2023-01-29T02:47:35.919Z,78.32
2023-01-29T02:52:45.602Z,79.19
2023-01-29T02:57:47.518Z,79.29
2023-01-29T03:02:51.602Z,79.18
2023-01-29T03:07:58.577Z,79.74
2023-01-29T03:13:08.670Z,79.92
2023-01-29T03:18:12.922Z,79.66
2023-01-29T03:23:19.769Z,80.44
2023-01-29T03:28:21.585Z,80.75
2023-01-29T03:33:24.331Z,80.73
2023-01-29T03:38:26.224Z,80.42
2023-01-29T03:43:35.355Z,80.69
2023-01-29T03:48:40.183Z,80.47
2023-01-29T03:53:48.849Z,80.21
2023-01-29T03:59:00.475Z,81.29
2023-01-29T04:04:03.845Z,80.80
2023-01-29T04:09:05.634Z,80.80
2023-01-29T04:14:07.580Z,81.22
2023-01-29T04:19:09.444Z,80.71
2023-01-29T04:24:11.501Z,80.87
2023-01-29T04:29:30.157Z,81.45
2023-01-29T04:34:55.136Z,81.56
2023-01-29T04:40:03.378Z,81.30
2023-01-29T04:45:24.751Z,81.91
2023-01-29T04:50:38.853Z,82.00
2023-01-29T04:55:42.120Z,82.05
2023-01-29T05:00:44.675Z,81.94
2023-01-29T05:05:47.647Z,82.27
2023-01-29T05:10:49.881Z,81.98
2023-01-29T05:16:07.575Z,81.94
2023-01-29T05:21:09.718Z,81.44
2023-01-29T05:26:11.455Z,81.83
2023-01-29T05:31:13.822Z,81.77
2023-01-29T05:36:15.587Z,81.96
2023-01-29T05:41:17.449Z,81.47
2023-01-29T05:46:24.086Z,81.25
2023-01-29T05:51:25.869Z,80.59
2023-01-29T05:56:27.561Z,81.07
2023-01-29T06:01:29.407Z,80.57
2023-01-29T06:06:31.209Z,80.34
2023-01-29T06:11:33.143Z,80.79
2023-01-29T06:16:35.206Z,80.55
2023-01-29T06:21:37.168Z,80.82
2023-01-29T06:26:38.907Z,81.04
2023-01-29T06:31:40.758Z,79.99
2023-01-29T06:36:42.614Z,80.09
2023-01-29T06:41:44.571Z,81.28
2023-01-29T06:46:46.479Z,81.46
2023-01-29T06:51:48.175Z,81.51
2023-01-29T06:56:50.070Z,80.49
2023-01-29T07:01:52.012Z,80.24
2023-01-29T07:06:53.987Z,79.55
2023-01-29T07:11:55.742Z,79.54
2023-01-29T07:16:57.606Z,78.92
2023-01-29T07:22:00.504Z,78.75
2023-01-29T07:27:03.007Z,77.89
2023-01-29T07:32:05.220Z,77.39
2023-01-29T07:37:07.427Z,76.63
2023-01-29T07:42:09.362Z,76.06
2023-01-29T07:47:12.049Z,74.87
2023-01-29T07:52:13.633Z,73.22
2023-01-29T07:57:15.731Z,74.42
2023-01-29T08:02:17.749Z,73.47
2023-01-29T08:07:19.703Z,72.98
2023-01-29T08:12:21.536Z,72.49
2023-01-29T08:17:23.312Z,71.92
2023-01-29T08:22:25.218Z,72.35
2023-01-29T08:27:27.098Z,71.84
2023-01-29T08:32:28.896Z,71.33
2023-01-29T08:37:30.731Z,71.52
2023-01-29T08:42:32.567Z,71.01
2023-01-29T08:47:34.504Z,70.84
2023-01-29T08:52:36.479Z,71.04
2023-01-29T08:57:38.884Z,71.27
2023-01-29T09:02:40.814Z,71.36
2023-01-29T09:07:42.749Z,71.60
2023-01-29T09:12:44.645Z,71.71
2023-01-29T09:17:46.582Z,72.02
2023-01-29T09:22:48.502Z,72.13
2023-01-29T09:27:50.404Z,71.64
2023-01-29T09:32:54.185Z,71.51
2023-01-29T09:37:56.554Z,71.70
2023-01-29T09:43:01.270Z,70.86
2023-01-29T09:48:03.961Z,71.35
2023-01-29T09:53:25.830Z,71.44
2023-01-29T09:58:35.421Z,70.98
2023-01-29T10:03:44.281Z,71.06
2023-01-29T10:09:25.841Z,70.51
2023-01-29T10:14:34.505Z,70.62
2023-01-29T10:19:46.222Z,70.96
2023-01-29T10:25:09.983Z,70.21
2023-01-29T10:30:40.412Z,70.22
2023-01-29T10:35:48.600Z,70.08
2023-01-29T10:41:00.092Z,70.38
2023-01-29T10:46:09.232Z,70.01
2023-01-29T10:51:15.009Z,70.05
2023-01-29T10:56:50.227Z,69.77
2023-01-29T11:01:52.214Z,70.45
2023-01-29T11:06:54.185Z,70.26
2023-01-29T11:12:29.191Z,70.17
2023-01-29T11:17:31.427Z,70.61
2023-01-29T11:22:33.315Z,69.97
2023-01-29T11:27:42.882Z,70.03
2023-01-29T11:32:45.241Z,70.24
2023-01-29T11:37:47.435Z,70.87
2023-01-29T11:42:49.767Z,70.76
2023-01-29T11:47:53.898Z,71.25
2023-01-29T11:52:55.735Z,71.65
2023-01-29T11:58:04.089Z,72.21
2023-01-29T12:03:29.904Z,72.16
2023-01-29T12:08:40.658Z,71.65
2023-01-29T12:13:42.461Z,72.40
2023-01-29T12:19:01.534Z,73.44
2023-01-29T12:24:10.719Z,73.49
2023-01-29T12:29:15.523Z,73.79
2023-01-29T12:35:06.454Z,74.58
2023-01-29T12:40:16.050Z,74.12
2023-01-29T12:45:19.934Z,74.55
2023-01-29T12:50:28.157Z,75.02
2023-01-29T12:55:45.698Z,76.00
2023-01-29T13:00:49.370Z,75.71
2023-01-29T13:06:06.612Z,76.13
2023-01-29T13:11:11.165Z,76.73
2023-01-29T13:16:14.283Z,76.37
2023-01-29T13:21:21.288Z,76.74
2023-01-29T13:26:23.248Z,76.89
2023-01-29T13:31:38.283Z,76.96
2023-01-29T13:36:44.641Z,77.11
2023-01-29T13:41:46.486Z,77.81
2023-01-29T13:46:50.282Z,77.84
2023-01-29T13:51:52.091Z,78.39
2023-01-29T13:56:58.759Z,77.90
2023-01-29T14:02:01.504Z,78.49
2023-01-29T14:07:03.390Z,79.25
2023-01-29T14:12:27.532Z,79.24
2023-01-29T14:17:29.384Z,78.95
2023-01-29T14:22:32.629Z,78.22
2023-01-29T14:27:35.621Z,78.95
2023-01-29T14:32:39.141Z,79.45
2023-01-29T14:37:40.907Z,78.82
2023-01-29T14:42:54.323Z,79.50
2023-01-29T14:48:11.754Z,79.43
2023-01-29T14:53:41.277Z,80.96
2023-01-29T14:58:50.437Z,81.66
2023-01-29T15:04:00.642Z,82.73
2023-01-29T15:09:28.772Z,84.28
2023-01-29T15:14:36.211Z,85.25
2023-01-29T15:19:46.039Z,86.05
2023-01-29T15:25:02.059Z,86.73
2023-01-29T15:30:06.259Z,87.83
2023-01-29T15:35:10.266Z,88.51
2023-01-29T15:40:14.338Z,88.95
2023-01-29T15:45:29.887Z,90.07
2023-01-29T15:50:31.830Z,90.86
2023-01-29T15:55:33.661Z,91.87
2023-01-29T16:00:35.508Z,92.54
2023-01-29T16:05:37.307Z,92.97
2023-01-29T16:10:39.074Z,92.21
2023-01-29T16:15:40.908Z,92.79
2023-01-29T16:20:46.240Z,92.56
2023-01-29T16:25:48.151Z,93.01
2023-01-29T16:30:56.766Z,92.07
2023-01-29T16:35:58.720Z,91.81
2023-01-29T16:41:23.224Z,90.87
2023-01-29T16:46:38.607Z,91.64
2023-01-29T16:51:40.514Z,91.18
2023-01-29T16:56:43.780Z,90.67
2023-01-29T17:01:45.564Z,90.33
2023-01-29T17:06:49.047Z,90.31
2023-01-29T17:11:54.007Z,89.80
2023-01-29T17:17:06.006Z,89.82
2023-01-29T17:22:07.862Z,89.21
2023-01-29T17:27:20.359Z,89.68
2023-01-29T17:32:22.231Z,88.88
2023-01-29T17:37:24.614Z,88.92
2023-01-29T17:42:26.363Z,88.56
2023-01-29T17:47:28.545Z,88.71
2023-01-29T17:52:30.379Z,88.47
2023-01-29T17:57:32.806Z,88.28
2023-01-29T18:02:34.724Z,87.71
2023-01-29T18:07:40.102Z,87.90
2023-01-29T18:12:41.929Z,87.48
2023-01-29T18:17:43.754Z,87.13
2023-01-29T18:22:45.556Z,87.13
2023-01-29T18:27:47.307Z,86.82
2023-01-29T18:32:49.363Z,86.73
2023-01-29T18:37:51.213Z,85.66
2023-01-29T18:42:53.162Z,85.69
2023-01-29T18:47:55.332Z,85.55
2023-01-29T18:52:57.400Z,85.50
2023-01-29T18:58:26.719Z,84.19
2023-01-29T19:03:21.059Z,84.77
2023-01-29T19:08:22.908Z,84.67
2023-01-29T19:13:24.879Z,84.63
2023-01-29T19:18:27.685Z,83.80
2023-01-29T19:23:29.613Z,83.71
2023-01-29T19:28:31.524Z,84.43
2023-01-29T19:33:33.449Z,84.18
2023-01-29T19:38:35.373Z,84.35
2023-01-29T19:43:37.275Z,84.54
2023-01-29T19:48:39.154Z,84.59
2023-01-29T19:53:41.723Z,85.08
2023-01-29T19:58:43.782Z,85.06
2023-01-29T20:03:46.880Z,85.34
2023-01-29T20:08:48.812Z,85.25
2023-01-29T20:13:51.530Z,85.48
2023-01-29T20:18:53.191Z,85.95
2023-01-29T20:23:55.049Z,86.02
2023-01-29T20:28:56.898Z,86.12
2023-01-29T20:33:58.765Z,87.11
2023-01-29T20:39:00.682Z,87.47
2023-01-29T20:44:02.795Z,87.35
2023-01-29T20:49:04.915Z,87.53
2023-01-29T20:54:06.812Z,87.24
2023-01-29T20:59:09.013Z,87.51
2023-01-29T21:04:10.894Z,87.65
2023-01-29T21:09:12.701Z,87.84
2023-01-29T21:14:14.684Z,88.19
2023-01-29T21:19:16.607Z,87.37
2023-01-29T21:24:18.424Z,87.86
2023-01-29T21:29:20.285Z,87.43
2023-01-29T21:34:22.171Z,87.65
2023-01-29T21:39:24.043Z,88.19
2023-01-29T21:44:25.867Z,88.22
2023-01-29T21:49:27.800Z,87.60
2023-01-29T21:54:29.755Z,88.29
2023-01-29T21:59:32.133Z,88.36
2023-01-29T22:04:34.055Z,88.38
2023-01-29T22:09:36.309Z,88.44
2023-01-29T22:14:38.157Z,89.63
2023-01-29T22:19:40.117Z,91.17
2023-01-29T22:24:42.859Z,91.72
2023-01-29T22:29:44.769Z,92.81
2023-01-29T22:34:46.696Z,92.99
2023-01-29T22:39:48.679Z,93.80
2023-01-29T22:44:50.629Z,94.05
2023-01-29T22:49:52.555Z,93.48
2023-01-29T22:54:54.453Z,92.86
2023-01-29T22:59:56.290Z,92.30
2023-01-29T23:04:58.173Z,92.74
2023-01-29T23:10:00.100Z,92.94
2023-01-29T23:15:02.191Z,92.25
2023-01-29T23:20:06.466Z,92.29
2023-01-29T23:25:08.357Z,92.19
2023-01-29T23:30:10.933Z,91.97
2023-01-29T23:35:12.937Z,91.91
2023-01-29T23:40:15.074Z,91.83
2023-01-29T23:45:17.100Z,91.37
2023-01-29T23:50:19.527Z,91.38
2023-01-29T23:55:21.919Z,91.73
